createdAt,value
2022-09-22T00:01:28.152Z,18.20
2022-09-22T00:03:57.520Z,18.20
2022-09-22T00:06:30.530Z,18.20
2022-09-22T00:09:02.675Z,18.20
2022-09-22T00:11:39.086Z,18.20
2022-09-22T00:14:20.563Z,18.20
2022-09-22T00:17:01.090Z,18.10
2022-09-22T00:19:30.858Z,18.10
2022-09-22T00:21:58.364Z,18.20
2022-09-22T00:24:26.752Z,18.10
2022-09-22T00:26:57.404Z,18.10
2022-09-22T00:29:25.794Z,18.10
2022-09-22T00:31:53.015Z,18.10
2022-09-22T00:34:22.882Z,18.10
2022-09-22T00:36:50.335Z,18.10
2022-09-22T00:39:18.272Z,18.10
2022-09-22T00:41:48.116Z,18.10
2022-09-22T00:44:26.978Z,18.10
2022-09-22T00:47:15.581Z,18.10
2022-09-22T00:50:00.770Z,18.10
2022-09-22T00:52:33.071Z,18.10
2022-09-22T00:55:04.624Z,18.10
2022-09-22T00:57:35.038Z,18.00
2022-09-22T01:00:04.914Z,18.00
2022-09-22T01:02:31.887Z,18.00
2022-09-22T01:04:59.246Z,18.00
2022-09-22T01:07:29.439Z,18.00
2022-09-22T01:09:56.556Z,18.00
2022-09-22T01:12:26.047Z,18.00
2022-09-22T01:15:05.754Z,18.00
2022-09-22T01:18:14.180Z,18.00
2022-09-22T01:21:07.553Z,18.10
2022-09-22T01:24:08.145Z,18.00
2022-09-22T01:27:13.032Z,18.00
2022-09-22T01:29:39.866Z,18.00
2022-09-22T01:32:21.178Z,18.00
2022-09-22T01:35:06.554Z,18.00
2022-09-22T01:37:54.388Z,18.00
2022-09-22T01:40:30.598Z,17.90
2022-09-22T01:43:13.385Z,17.90
2022-09-22T01:45:44.541Z,17.90
2022-09-22T01:48:25.808Z,17.90
2022-09-22T01:51:00.737Z,17.90
2022-09-22T01:53:34.454Z,17.90
2022-09-22T01:56:05.831Z,17.90
2022-09-22T01:58:37.752Z,17.90
2022-09-22T02:01:38.110Z,17.90
2022-09-22T02:04:14.446Z,17.90
2022-09-22T02:06:48.988Z,17.90
2022-09-22T02:09:23.944Z,17.90
2022-09-22T02:11:50.909Z,17.90
2022-09-22T02:14:18.003Z,17.80
2022-09-22T02:16:45.403Z,17.80
2022-09-22T02:19:34.531Z,17.80
2022-09-22T02:22:01.594Z,17.80
2022-09-22T02:24:37.705Z,17.80
2022-09-22T02:27:14.002Z,17.80
2022-09-22T02:29:46.489Z,17.80
2022-09-22T02:32:16.894Z,17.80
2022-09-22T02:34:46.136Z,17.80
2022-09-22T02:37:26.053Z,17.80
2022-09-22T02:40:04.229Z,17.80
2022-09-22T02:42:41.008Z,17.80
2022-09-22T02:45:23.329Z,17.80
2022-09-22T02:47:57.325Z,17.80
2022-09-22T02:50:27.202Z,17.90
2022-09-22T02:53:01.299Z,17.90
2022-09-22T02:55:28.345Z,17.80
2022-09-22T02:57:55.525Z,17.80
2022-09-22T03:00:22.621Z,17.80
2022-09-22T03:02:49.580Z,17.80
2022-09-22T03:05:16.678Z,17.80
2022-09-22T03:07:43.535Z,17.80
2022-09-22T03:10:11.376Z,17.80
2022-09-22T03:13:02.343Z,17.80
2022-09-22T03:15:29.854Z,17.80
2022-09-22T03:17:56.822Z,17.80
2022-09-22T03:20:23.776Z,17.80
2022-09-22T03:22:50.629Z,17.70
2022-09-22T03:25:17.621Z,17.70
2022-09-22T03:27:44.476Z,17.70
2022-09-22T03:30:12.156Z,17.70
2022-09-22T03:32:39.068Z,17.70
2022-09-22T03:35:07.118Z,17.70
2022-09-22T03:37:35.082Z,17.70
2022-09-22T03:40:03.441Z,17.60
2022-09-22T03:42:30.512Z,17.60
2022-09-22T03:44:57.463Z,17.60
2022-09-22T03:47:24.422Z,17.60
2022-09-22T03:49:51.615Z,17.60
2022-09-22T03:52:18.470Z,17.50
2022-09-22T03:54:45.296Z,17.60
2022-09-22T03:57:12.156Z,17.60
2022-09-22T03:59:39.047Z,17.60
2022-09-22T04:02:05.956Z,17.50
2022-09-22T04:04:32.978Z,17.50
2022-09-22T04:07:06.131Z,17.50
2022-09-22T04:09:34.131Z,17.50
2022-09-22T04:12:01.145Z,17.50
2022-09-22T04:14:28.126Z,17.50
2022-09-22T04:16:55.015Z,17.50
2022-09-22T04:19:22.806Z,17.50
2022-09-22T04:21:54.680Z,17.50
2022-09-22T04:24:24.612Z,17.50
2022-09-22T04:27:15.533Z,17.50
2022-09-22T04:29:38.747Z,17.40
2022-09-22T04:32:05.939Z,17.40
2022-09-22T04:34:33.151Z,17.40
2022-09-22T04:37:00.045Z,17.50
2022-09-22T04:39:28.718Z,17.50
2022-09-22T04:41:55.788Z,17.50
2022-09-22T04:44:22.674Z,17.50
2022-09-22T04:46:50.317Z,17.50
2022-09-22T04:49:18.127Z,17.40
2022-09-22T04:51:45.419Z,17.30
2022-09-22T04:54:14.072Z,17.30
2022-09-22T04:56:42.656Z,17.20
2022-09-22T04:59:09.991Z,17.20
2022-09-22T05:01:36.948Z,17.00
2022-09-22T05:04:04.253Z,16.60
2022-09-22T05:06:31.242Z,16.20
2022-09-22T05:08:58.711Z,16.00
2022-09-22T05:11:25.733Z,15.80
2022-09-22T05:13:52.658Z,15.70
2022-09-22T05:16:20.097Z,15.80
2022-09-22T05:18:50.199Z,16.20
2022-09-22T05:21:18.870Z,16.40
2022-09-22T05:23:46.278Z,16.50
2022-09-22T05:26:13.608Z,16.60
2022-09-22T05:28:40.960Z,16.70
2022-09-22T05:31:08.528Z,16.70
2022-09-22T05:33:35.374Z,16.70
2022-09-22T05:36:02.801Z,16.70
2022-09-22T05:38:29.635Z,16.70
2022-09-22T05:40:56.487Z,16.70
2022-09-22T05:43:23.288Z,16.80
2022-09-22T05:45:50.235Z,16.80
2022-09-22T05:48:17.190Z,16.90
2022-09-22T05:50:45.433Z,17.10
2022-09-22T05:53:13.110Z,17.10
2022-09-22T05:55:41.035Z,17.20
2022-09-22T05:58:12.215Z,17.30
2022-09-22T06:00:41.173Z,17.30
2022-09-22T06:03:08.594Z,17.40
2022-09-22T06:05:38.378Z,17.40
2022-09-22T06:08:07.858Z,17.40
2022-09-22T06:10:36.659Z,17.40
2022-09-22T06:13:11.132Z,17.50
2022-09-22T06:15:38.771Z,17.50
2022-09-22T06:18:11.843Z,17.50
2022-09-22T06:20:42.514Z,17.50
2022-09-22T06:23:09.326Z,17.50
2022-09-22T06:25:36.245Z,17.50
2022-09-22T06:28:08.072Z,17.60
2022-09-22T06:30:38.159Z,17.60
2022-09-22T06:33:05.635Z,17.60
2022-09-22T06:35:37.744Z,17.70
2022-09-22T06:38:06.424Z,17.70
2022-09-22T06:40:36.421Z,17.70
2022-09-22T06:43:12.851Z,17.80
2022-09-22T06:45:40.404Z,17.80
2022-09-22T06:48:10.385Z,17.80
2022-09-22T06:50:38.844Z,17.80
2022-09-22T06:53:07.724Z,17.90
2022-09-22T06:55:36.113Z,17.90
2022-09-22T06:58:03.256Z,18.00
2022-09-22T07:00:32.876Z,18.00
2022-09-22T07:03:15.593Z,18.00
2022-09-22T07:05:43.447Z,18.00
2022-09-22T07:08:10.439Z,18.10
2022-09-22T07:10:38.277Z,18.10
2022-09-22T07:13:06.177Z,18.20
2022-09-22T07:15:35.613Z,18.20
2022-09-22T07:18:03.448Z,18.20
2022-09-22T07:20:30.493Z,18.30
2022-09-22T07:23:00.737Z,18.30
2022-09-22T07:25:29.392Z,18.30
2022-09-22T07:27:59.232Z,18.40
2022-09-22T07:30:26.295Z,18.40
2022-09-22T07:32:53.999Z,18.40
2022-09-22T07:35:20.911Z,18.50
2022-09-22T07:37:47.757Z,18.50
2022-09-22T07:40:14.851Z,18.60
2022-09-22T07:42:41.761Z,18.60
2022-09-22T07:45:12.768Z,18.60
2022-09-22T07:47:58.610Z,18.70
2022-09-22T07:50:25.539Z,18.70
2022-09-22T07:52:53.523Z,18.70
2022-09-22T07:55:24.134Z,18.80
2022-09-22T07:57:58.486Z,18.80
2022-09-22T08:00:28.212Z,18.80
2022-09-22T08:02:57.752Z,18.90
2022-09-22T08:05:26.512Z,18.90
2022-09-22T08:07:57.282Z,18.90
2022-09-22T08:10:25.529Z,19.00
2022-09-22T08:12:57.876Z,19.10
2022-09-22T08:15:27.348Z,19.10
2022-09-22T08:17:58.306Z,19.20
2022-09-22T08:20:29.194Z,19.20
2022-09-22T08:23:03.113Z,19.30
2022-09-22T08:25:30.817Z,19.30
2022-09-22T08:28:00.263Z,19.30
2022-09-22T08:30:27.128Z,19.40
2022-09-22T08:32:54.078Z,19.40
2022-09-22T08:35:21.221Z,19.40
2022-09-22T08:37:50.361Z,19.50
2022-09-22T08:40:21.268Z,19.50
2022-09-22T08:42:48.248Z,19.60
2022-09-22T08:45:46.233Z,19.70
2022-09-22T08:48:41.312Z,19.70
2022-09-22T08:51:32.369Z,19.80
2022-09-22T08:54:03.305Z,19.80
2022-09-22T08:56:57.590Z,19.90
2022-09-22T08:59:32.898Z,20.00
2022-09-22T09:02:17.359Z,20.00
2022-09-22T09:04:46.978Z,20.00
2022-09-22T09:07:32.871Z,20.10
2022-09-22T09:10:41.158Z,20.20
2022-09-22T09:13:20.641Z,20.30
2022-09-22T09:16:06.013Z,20.20
2022-09-22T09:18:37.004Z,20.20
2022-09-22T09:21:09.355Z,20.20
2022-09-22T09:26:35.604Z,20.30
2022-09-22T09:29:06.515Z,20.20
2022-09-22T09:31:53.314Z,20.30
2022-09-22T09:34:23.050Z,20.30
2022-09-22T09:36:55.296Z,20.30
2022-09-22T09:39:38.168Z,20.50
2022-09-22T09:42:23.909Z,20.50
2022-09-22T09:44:53.621Z,20.40
2022-09-22T09:47:59.134Z,20.50
2022-09-22T09:50:32.204Z,20.50
2022-09-22T09:53:00.113Z,20.40
2022-09-22T09:55:27.668Z,20.40
2022-09-22T09:58:10.960Z,20.50
2022-09-22T10:00:57.819Z,20.50
2022-09-22T10:03:32.591Z,20.50
2022-09-22T10:06:09.335Z,20.50
2022-09-22T10:08:50.766Z,20.50
2022-09-22T10:11:31.887Z,20.60
2022-09-22T10:13:59.318Z,20.50
2022-09-22T10:16:28.784Z,20.50
2022-09-22T10:18:58.628Z,20.60
2022-09-22T10:21:26.944Z,20.60
2022-09-22T10:23:59.673Z,20.60
2022-09-22T10:26:31.425Z,20.70
2022-09-22T10:29:19.230Z,20.70
2022-09-22T10:32:05.793Z,20.70
2022-09-22T10:34:37.975Z,20.60
2022-09-22T10:37:11.918Z,20.60
2022-09-22T10:39:46.328Z,20.60
2022-09-22T10:42:45.466Z,20.50
2022-09-22T10:45:19.313Z,20.60
2022-09-22T10:47:56.257Z,20.70
2022-09-22T10:50:57.496Z,20.70
2022-09-22T10:54:11.406Z,20.80
2022-09-22T10:56:49.526Z,20.70
2022-09-22T10:59:19.420Z,20.60
2022-09-22T11:02:04.810Z,20.60
2022-09-22T11:04:46.596Z,20.60
2022-09-22T11:07:43.894Z,20.80
2022-09-22T11:10:56.276Z,20.70
2022-09-22T11:13:57.946Z,20.80
2022-09-22T11:16:46.582Z,20.80
2022-09-22T11:19:57.258Z,20.60
2022-09-22T11:22:51.512Z,20.60
2022-09-22T11:25:40.005Z,20.70
2022-09-22T11:28:13.045Z,20.60
2022-09-22T11:30:46.703Z,20.60
2022-09-22T11:33:45.228Z,20.70
2022-09-22T11:36:48.058Z,20.70
2022-09-22T11:39:33.530Z,20.70
2022-09-22T11:42:20.307Z,20.80
2022-09-22T11:45:08.256Z,20.80
2022-09-22T11:47:53.881Z,20.70
2022-09-22T11:50:26.381Z,20.70
2022-09-22T11:53:13.107Z,20.70
2022-09-22T11:56:00.945Z,20.70
2022-09-22T11:58:31.254Z,20.80
2022-09-22T12:01:13.128Z,20.80
2022-09-22T12:03:47.675Z,20.80
2022-09-22T12:06:18.650Z,20.80
2022-09-22T12:11:28.314Z,20.80
2022-09-22T12:13:57.268Z,20.80
2022-09-22T12:16:29.219Z,20.80
2022-09-22T12:19:02.022Z,20.90
2022-09-22T12:21:50.659Z,20.90
2022-09-22T12:24:17.614Z,21.00
2022-09-22T12:26:47.203Z,20.90
2022-09-22T12:29:14.374Z,20.90
2022-09-22T12:31:44.867Z,20.80
2022-09-22T12:34:19.243Z,20.80
2022-09-22T12:36:47.413Z,20.90
2022-09-22T12:39:18.518Z,20.80
2022-09-22T12:41:57.950Z,20.70
2022-09-22T12:44:28.829Z,20.80
2022-09-22T12:47:14.476Z,20.80
2022-09-22T12:49:50.924Z,20.70
2022-09-22T12:52:40.873Z,20.80
2022-09-22T12:55:40.115Z,20.80
2022-09-22T12:58:22.223Z,20.80
2022-09-22T13:00:50.910Z,20.80
2022-09-22T13:03:26.749Z,20.80
2022-09-22T13:06:24.153Z,20.80
2022-09-22T13:08:53.748Z,20.80
2022-09-22T13:11:40.916Z,20.80
2022-09-22T13:14:53.645Z,20.90
2022-09-22T13:17:46.230Z,20.90
2022-09-22T13:20:31.025Z,20.90
2022-09-22T13:23:05.712Z,20.80
2022-09-22T13:25:32.672Z,20.80
2022-09-22T13:28:11.778Z,20.90
2022-09-22T13:30:40.564Z,21.00
2022-09-22T13:33:27.963Z,21.00
2022-09-22T13:36:08.231Z,21.00
2022-09-22T13:38:44.011Z,20.90
2022-09-22T13:41:27.025Z,21.00
2022-09-22T13:44:10.674Z,21.00
2022-09-22T13:46:47.054Z,21.00
2022-09-22T13:49:31.179Z,21.00
2022-09-22T13:52:27.398Z,21.00
2022-09-22T13:55:00.597Z,21.10
2022-09-22T13:57:31.003Z,21.00
2022-09-22T14:00:03.526Z,21.00
2022-09-22T14:02:32.592Z,21.00
2022-09-22T14:05:03.005Z,21.00
2022-09-22T14:07:32.367Z,21.00
2022-09-22T14:10:01.534Z,21.00
2022-09-22T14:12:29.490Z,21.00
2022-09-22T14:14:57.107Z,21.00
2022-09-22T14:17:28.736Z,21.00
2022-09-22T14:20:02.982Z,21.00
2022-09-22T14:22:33.588Z,21.00
2022-09-22T14:25:03.606Z,21.00
2022-09-22T14:27:49.215Z,21.00
2022-09-22T14:30:17.939Z,21.10
2022-09-22T14:32:54.817Z,21.00
2022-09-22T14:35:29.239Z,21.10
2022-09-22T14:38:05.434Z,21.10
2022-09-22T14:40:38.491Z,21.10
2022-09-22T14:43:23.965Z,21.10
2022-09-22T14:46:06.093Z,21.10
2022-09-22T14:48:38.427Z,21.10
2022-09-22T14:51:17.383Z,21.00
2022-09-22T14:54:15.586Z,21.10
2022-09-22T14:56:43.864Z,21.10
2022-09-22T14:59:35.727Z,21.10
2022-09-22T15:02:22.286Z,21.10
2022-09-22T15:04:52.226Z,21.10
2022-09-22T15:07:30.459Z,21.10
2022-09-22T15:10:01.150Z,21.10
2022-09-22T15:12:46.165Z,21.10
2022-09-22T15:15:24.358Z,21.10
2022-09-22T15:18:13.459Z,21.10
2022-09-22T15:20:48.311Z,21.10
2022-09-22T15:23:28.815Z,21.10
2022-09-22T15:25:56.203Z,21.20
2022-09-22T15:28:24.714Z,21.10
2022-09-22T15:30:52.882Z,21.10
2022-09-22T15:33:21.300Z,21.10
2022-09-22T15:35:53.582Z,21.10
2022-09-22T15:38:26.876Z,21.10
2022-09-22T15:40:54.223Z,21.10
2022-09-22T15:43:23.367Z,21.10
2022-09-22T15:45:53.953Z,21.10
2022-09-22T15:48:27.909Z,21.10
2022-09-22T15:50:56.575Z,21.10
2022-09-22T15:53:24.440Z,21.10
2022-09-22T15:55:52.911Z,21.10
2022-09-22T15:58:23.226Z,21.10
2022-09-22T16:00:52.452Z,21.10
2022-09-22T16:03:22.553Z,21.10
2022-09-22T16:06:08.471Z,21.10
2022-09-22T16:08:44.640Z,21.20
2022-09-22T16:11:17.098Z,21.10
2022-09-22T16:13:44.576Z,21.10
2022-09-22T16:16:12.625Z,21.10
2022-09-22T16:18:41.927Z,21.10
2022-09-22T16:21:29.456Z,21.10
2022-09-22T16:24:02.878Z,21.10
2022-09-22T16:26:31.848Z,21.20
2022-09-22T16:28:59.304Z,21.10
2022-09-22T16:31:27.184Z,21.10
2022-09-22T16:34:00.368Z,21.10
2022-09-22T16:36:31.121Z,21.10
2022-09-22T16:38:57.978Z,21.00
2022-09-22T16:41:25.789Z,21.10
2022-09-22T16:43:54.322Z,21.10
2022-09-22T16:46:28.221Z,21.10
2022-09-22T16:49:12.197Z,21.00
2022-09-22T16:51:41.382Z,21.10
2022-09-22T16:54:12.357Z,21.00
2022-09-22T16:56:40.410Z,21.00
2022-09-22T16:59:07.817Z,21.00
2022-09-22T17:01:37.703Z,21.00
2022-09-22T17:04:06.499Z,21.00
2022-09-22T17:06:36.131Z,21.00
2022-09-22T17:09:03.567Z,20.90
2022-09-22T17:11:34.576Z,20.90
2022-09-22T17:14:04.630Z,20.90
2022-09-22T17:16:34.950Z,20.90
2022-09-22T17:19:07.042Z,20.90
2022-09-22T17:21:37.115Z,20.90
2022-09-22T17:24:05.778Z,20.90
2022-09-22T17:26:38.649Z,20.80
2022-09-22T17:29:06.675Z,20.90
2022-09-22T17:31:36.346Z,20.80
2022-09-22T17:34:03.681Z,20.80
2022-09-22T17:36:30.985Z,20.80
2022-09-22T17:39:00.340Z,20.80
2022-09-22T17:41:31.435Z,20.80
2022-09-22T17:44:01.310Z,20.80
2022-09-22T17:46:31.509Z,20.80
2022-09-22T17:49:17.187Z,20.70
2022-09-22T17:52:05.285Z,20.70
2022-09-22T17:54:59.211Z,20.70
2022-09-22T17:57:28.421Z,20.70
2022-09-22T17:59:56.494Z,20.60
2022-09-22T18:02:28.808Z,20.60
2022-09-22T18:04:55.846Z,20.60
2022-09-22T18:07:25.714Z,20.40
2022-09-22T18:09:55.455Z,20.30
2022-09-22T18:12:24.817Z,20.10
2022-09-22T18:14:53.453Z,20.20
2022-09-22T18:17:24.669Z,20.30
2022-09-22T18:19:54.566Z,20.30
2022-09-22T18:22:24.732Z,20.30
2022-09-22T18:24:56.231Z,20.40
2022-09-22T18:27:27.040Z,20.40
2022-09-22T18:29:58.376Z,20.40
2022-09-22T18:32:28.509Z,20.40
2022-09-22T18:34:55.696Z,20.30
2022-09-22T18:37:23.635Z,20.30
2022-09-22T18:39:51.074Z,20.30
2022-09-22T18:42:19.626Z,20.30
2022-09-22T18:44:47.273Z,20.30
2022-09-22T18:47:16.497Z,20.20
2022-09-22T18:49:44.922Z,20.20
2022-09-22T18:52:12.065Z,20.20
2022-09-22T18:54:43.074Z,20.20
2022-09-22T18:57:13.440Z,20.20
2022-09-22T18:59:40.763Z,20.20
2022-09-22T19:02:11.906Z,20.20
2022-09-22T19:04:39.515Z,20.10
2022-09-22T19:07:24.963Z,20.10
2022-09-22T19:09:52.993Z,20.10
2022-09-22T19:12:20.432Z,20.10
2022-09-22T19:14:48.158Z,20.00
2022-09-22T19:17:17.254Z,20.00
2022-09-22T19:19:46.057Z,20.00
2022-09-22T19:22:13.008Z,20.00
2022-09-22T19:24:40.576Z,20.00
2022-09-22T19:27:09.204Z,20.00
2022-09-22T19:29:36.475Z,20.00
2022-09-22T19:32:04.753Z,20.00
2022-09-22T19:34:32.236Z,19.90
2022-09-22T19:36:59.592Z,20.00
2022-09-22T19:39:27.043Z,20.00
2022-09-22T19:41:54.906Z,19.90
2022-09-22T19:44:23.292Z,19.90
2022-09-22T19:46:50.435Z,19.90
2022-09-22T19:49:17.913Z,19.90
2022-09-22T19:51:45.187Z,19.90
2022-09-22T19:54:12.492Z,20.00
2022-09-22T19:56:39.605Z,20.00
2022-09-22T19:59:10.030Z,20.00
2022-09-22T20:01:41.633Z,20.00
2022-09-22T20:04:19.676Z,20.00
2022-09-22T20:06:48.719Z,20.00
2022-09-22T20:09:16.876Z,19.90
2022-09-22T20:11:46.709Z,19.90
2022-09-22T20:14:22.113Z,19.90
2022-09-22T20:16:51.316Z,19.90
2022-09-22T20:19:18.956Z,19.90
2022-09-22T20:21:46.787Z,19.90
2022-09-22T20:24:17.027Z,19.80
2022-09-22T20:26:47.883Z,19.80
2022-09-22T20:29:16.530Z,19.70
2022-09-22T20:31:44.731Z,19.70
2022-09-22T20:34:18.722Z,19.60
2022-09-22T20:36:45.544Z,19.70
2022-09-22T20:39:14.952Z,19.60
2022-09-22T20:41:43.044Z,19.60
2022-09-22T20:44:14.605Z,19.60
2022-09-22T20:46:47.815Z,19.60
2022-09-22T20:49:15.077Z,19.60
2022-09-22T20:51:42.489Z,19.50
2022-09-22T20:54:09.911Z,19.50
2022-09-22T20:56:41.954Z,19.50
2022-09-22T20:59:09.646Z,19.50
2022-09-22T21:01:36.839Z,19.50
2022-09-22T21:04:03.945Z,19.50
2022-09-22T21:06:31.139Z,19.50
2022-09-22T21:09:16.907Z,19.40
2022-09-22T21:11:44.232Z,19.40
2022-09-22T21:14:11.966Z,19.40
2022-09-22T21:16:39.515Z,19.40
2022-09-22T21:19:07.671Z,19.40
2022-09-22T21:21:38.611Z,19.40
2022-09-22T21:24:05.749Z,19.40
2022-09-22T21:26:33.288Z,19.40
2022-09-22T21:29:00.664Z,19.40
2022-09-22T21:31:28.458Z,19.30
2022-09-22T21:33:55.793Z,19.30
2022-09-22T21:36:23.917Z,19.30
2022-09-22T21:38:58.972Z,19.30
2022-09-22T21:41:28.024Z,19.30
2022-09-22T21:43:55.436Z,19.30
2022-09-22T21:46:29.630Z,19.20
2022-09-22T21:49:00.946Z,19.20
2022-09-22T21:51:30.356Z,19.20
2022-09-22T21:53:57.294Z,19.20
2022-09-22T21:56:25.788Z,19.20
2022-09-22T21:58:54.292Z,19.20
2022-09-22T22:01:29.320Z,19.20
2022-09-22T22:03:57.777Z,19.20
2022-09-22T22:06:31.141Z,19.20
2022-09-22T22:09:07.026Z,19.20
2022-09-22T22:11:39.739Z,19.10
2022-09-22T22:14:10.254Z,19.10
2022-09-22T22:16:45.414Z,19.10
2022-09-22T22:19:14.576Z,19.10
2022-09-22T22:21:43.271Z,19.10
2022-09-22T22:24:18.244Z,19.10
2022-09-22T22:26:51.556Z,19.00
2022-09-22T22:29:19.894Z,19.00
2022-09-22T22:31:51.619Z,19.00
2022-09-22T22:34:21.146Z,19.00
2022-09-22T22:36:48.777Z,19.00
2022-09-22T22:39:16.466Z,18.90
2022-09-22T22:41:43.374Z,18.90
2022-09-22T22:44:12.301Z,19.00
2022-09-22T22:46:39.214Z,19.00
2022-09-22T22:49:09.068Z,19.00
2022-09-22T22:51:36.149Z,19.00
2022-09-22T22:54:03.185Z,19.00
2022-09-22T22:56:30.146Z,18.90
2022-09-22T22:58:57.170Z,19.00
2022-09-22T23:01:29.103Z,18.90
2022-09-22T23:03:58.507Z,18.90
2022-09-22T23:06:34.158Z,18.90
2022-09-22T23:09:01.211Z,18.90
2022-09-22T23:11:35.421Z,18.90
2022-09-22T23:14:03.740Z,18.80
2022-09-22T23:16:33.757Z,18.90
2022-09-22T23:19:02.820Z,18.80
2022-09-22T23:21:33.145Z,18.80
2022-09-22T23:24:03.529Z,18.80
2022-09-22T23:26:30.680Z,18.80
2022-09-22T23:29:05.086Z,18.80
2022-09-22T23:31:32.560Z,18.80
2022-09-22T23:33:59.425Z,18.80
2022-09-22T23:36:28.505Z,18.80
2022-09-22T23:38:56.996Z,18.80
2022-09-22T23:41:24.284Z,18.80
2022-09-22T23:43:51.281Z,18.70
2022-09-22T23:46:18.354Z,18.70
2022-09-22T23:48:47.435Z,18.70
2022-09-22T23:51:14.666Z,18.70
2022-09-22T23:53:41.909Z,18.70
2022-09-22T23:56:09.232Z,18.70
2022-09-22T23:58:38.079Z,18.70
